createdAt,value
2022-11-08T00:02:18.136Z,100071.31
2022-11-08T00:04:45.648Z,100065.91
2022-11-08T00:07:32.029Z,100048.66
2022-11-08T00:10:17.267Z,100055.38
2022-11-08T00:13:02.593Z,100065.91
2022-11-08T00:15:33.307Z,100050.09
2022-11-08T00:18:00.789Z,100054.75
2022-11-08T00:20:28.229Z,100050.25
2022-11-08T00:22:57.066Z,100061.56
2022-11-08T00:25:24.779Z,100060.69
2022-11-08T00:27:52.260Z,100065.25
2022-11-08T00:30:19.717Z,100061.72
2022-11-08T00:32:47.195Z,100071.31
2022-11-08T00:35:14.655Z,100068.75
2022-11-08T00:37:42.160Z,100068.66
2022-11-08T00:40:12.548Z,100062.50
2022-11-08T00:42:40.001Z,100062.59
2022-11-08T00:45:08.303Z,100063.44
2022-11-08T00:47:35.756Z,100064.38
2022-11-08T00:50:03.212Z,100067.03
2022-11-08T00:52:30.704Z,100027.09
2022-11-08T00:54:58.174Z,100068.91
2022-11-08T00:57:41.132Z,100066.25
2022-11-08T01:00:15.268Z,100063.72
2022-11-08T01:02:42.720Z,100071.66
2022-11-08T01:05:10.348Z,100070.84
2022-11-08T01:07:38.631Z,100063.78
2022-11-08T01:10:06.860Z,100053.19
2022-11-08T01:12:35.936Z,100057.66
2022-11-08T01:15:03.745Z,100055.94
2022-11-08T01:17:31.224Z,100055.00
2022-11-08T01:19:58.705Z,100051.50
2022-11-08T01:22:26.160Z,100047.06
2022-11-08T01:24:53.685Z,100049.69
2022-11-08T01:27:21.110Z,100052.34
2022-11-08T01:29:49.896Z,100044.41
2022-11-08T01:32:17.368Z,100038.31
2022-11-08T01:34:44.818Z,100037.44
2022-11-08T01:37:12.295Z,100042.75
2022-11-08T01:39:39.759Z,100033.97
2022-11-08T01:42:07.264Z,100032.16
2022-11-08T01:44:34.761Z,100021.53
2022-11-08T01:47:03.552Z,100025.06
2022-11-08T01:49:44.592Z,100022.50
2022-11-08T01:52:21.329Z,100021.63
2022-11-08T01:54:55.639Z,100026.94
2022-11-08T01:57:25.299Z,100012.44
2022-11-08T01:59:54.025Z,100018.16
2022-11-08T02:02:22.836Z,100008.47
2022-11-08T02:04:50.330Z,100011.97
2022-11-08T02:07:17.773Z,100020.91
2022-11-08T02:09:46.434Z,100017.38
2022-11-08T02:12:13.978Z,100012.06
2022-11-08T02:14:41.467Z,100015.69
2022-11-08T02:17:09.563Z,99961.72
2022-11-08T02:19:41.106Z,100012.16
2022-11-08T02:22:13.441Z,100006.00
2022-11-08T02:24:42.219Z,100002.50
2022-11-08T02:27:09.696Z,100004.31
2022-11-08T02:29:37.241Z,100010.47
2022-11-08T02:32:05.673Z,100007.91
2022-11-08T02:34:34.955Z,100008.75
2022-11-08T02:37:02.454Z,100010.56
2022-11-08T02:39:30.080Z,100006.19
2022-11-08T02:41:58.853Z,100010.66
2022-11-08T02:44:26.316Z,100003.81
2022-11-08T02:46:53.757Z,100001.81
2022-11-08T02:49:21.201Z,100004.47
2022-11-08T02:51:48.653Z,100003.63
2022-11-08T02:54:16.084Z,100000.13
2022-11-08T02:56:43.516Z,100000.13
2022-11-08T02:59:12.283Z,100001.06
2022-11-08T03:01:39.869Z,100003.63
2022-11-08T03:04:07.391Z,99994.81
2022-11-08T03:06:34.835Z,99997.56
2022-11-08T03:09:02.295Z,99992.38
2022-11-08T03:11:29.815Z,99995.00
2022-11-08T03:13:57.263Z,99991.50
2022-11-08T03:16:25.996Z,99988.16
2022-11-08T03:18:53.452Z,99992.44
2022-11-08T03:21:20.939Z,99987.06
2022-11-08T03:23:48.413Z,99980.03
2022-11-08T03:26:15.839Z,99984.50
2022-11-08T03:28:43.279Z,99981.94
2022-11-08T03:31:10.747Z,99981.94
2022-11-08T03:33:39.552Z,99988.94
2022-11-08T03:36:07.204Z,99984.69
2022-11-08T03:38:34.647Z,99977.56
2022-11-08T03:41:02.107Z,99983.81
2022-11-08T03:43:29.571Z,99978.41
2022-11-08T03:45:56.997Z,99979.28
2022-11-08T03:48:24.483Z,99975.19
2022-11-08T03:50:53.286Z,99982.13
2022-11-08T03:53:20.717Z,99978.50
2022-11-08T03:55:48.164Z,99975.00
2022-11-08T03:58:15.894Z,99976.81
2022-11-08T04:00:43.581Z,99977.66
2022-11-08T04:03:11.032Z,99965.63
2022-11-08T04:05:38.455Z,99964.66
2022-11-08T04:08:07.400Z,99967.91
2022-11-08T04:10:34.970Z,99971.50
2022-11-08T04:13:20.040Z,99972.34
2022-11-08T04:15:47.700Z,99966.31
2022-11-08T04:18:33.038Z,99969.88
2022-11-08T04:21:18.286Z,99972.44
2022-11-08T04:23:47.220Z,99942.84
2022-11-08T04:26:14.752Z,99960.41
2022-11-08T04:28:42.448Z,99958.34
2022-11-08T04:31:10.865Z,99907.81
2022-11-08T04:33:38.377Z,99946.88
2022-11-08T04:36:07.388Z,99851.56
2022-11-08T04:38:34.967Z,99884.31
2022-11-08T04:41:04.473Z,99941.56
2022-11-08T04:43:32.068Z,99944.22
2022-11-08T04:46:00.889Z,99933.63
2022-11-08T04:48:28.366Z,99927.38
2022-11-08T04:50:55.821Z,99923.88
2022-11-08T04:53:23.299Z,99911.75
2022-11-08T04:55:50.801Z,99924.81
2022-11-08T04:58:19.954Z,99928.41
2022-11-08T05:00:47.592Z,99929.19
2022-11-08T05:03:15.032Z,99938.84
2022-11-08T05:05:42.461Z,99919.97
2022-11-08T05:08:09.932Z,99932.84
2022-11-08T05:10:37.376Z,99931.16
2022-11-08T05:13:05.239Z,99931.06
2022-11-08T05:15:34.003Z,99929.28
2022-11-08T05:18:01.439Z,99928.50
2022-11-08T05:20:46.581Z,99926.72
2022-11-08T05:23:26.283Z,99914.75
2022-11-08T05:25:54.041Z,99925.00
2022-11-08T05:28:21.520Z,99922.44
2022-11-08T05:30:56.605Z,99929.47
2022-11-08T05:33:24.281Z,99933.03
2022-11-08T05:35:51.823Z,99933.03
2022-11-08T05:38:19.728Z,99929.56
2022-11-08T05:40:50.784Z,99927.91
2022-11-08T05:43:18.462Z,99920.16
2022-11-08T05:45:46.386Z,99923.75
2022-11-08T05:48:15.290Z,99918.28
2022-11-08T05:50:43.483Z,99926.31
2022-11-08T05:53:11.846Z,99914.84
2022-11-08T05:55:39.294Z,99918.34
2022-11-08T05:58:07.107Z,99912.00
2022-11-08T06:00:34.616Z,99905.78
2022-11-08T06:03:02.626Z,99862.56
2022-11-08T06:05:31.468Z,99910.31
2022-11-08T06:07:58.891Z,99902.28
2022-11-08T06:10:26.500Z,99900.41
2022-11-08T06:12:53.962Z,99906.72
2022-11-08T06:15:21.394Z,99903.31
2022-11-08T06:17:48.828Z,99907.75
2022-11-08T06:20:16.291Z,99905.19
2022-11-08T06:22:45.076Z,99903.41
2022-11-08T06:25:12.536Z,99910.41
2022-11-08T06:27:39.980Z,99912.19
2022-11-08T06:30:09.107Z,99914.75
2022-11-08T06:32:36.695Z,99908.63
2022-11-08T06:35:04.376Z,99906.72
2022-11-08T06:37:31.869Z,99912.97
2022-11-08T06:40:00.632Z,99876.50
2022-11-08T06:42:28.061Z,99902.28
2022-11-08T06:44:55.512Z,99907.38
2022-11-08T06:47:22.964Z,99820.88
2022-11-08T06:49:50.439Z,99898.47
2022-11-08T06:52:17.874Z,99897.47
2022-11-08T06:54:45.333Z,99902.75
2022-11-08T06:57:14.094Z,99903.50
2022-11-08T06:59:41.560Z,99900.66
2022-11-08T07:02:10.085Z,99905.78
2022-11-08T07:04:37.864Z,99899.56
2022-11-08T07:07:05.292Z,99900.28
2022-11-08T07:09:32.733Z,99889.69
2022-11-08T07:12:00.193Z,99891.22
2022-11-08T07:14:28.973Z,99884.00
2022-11-08T07:16:56.433Z,99883.91
2022-11-08T07:19:24.023Z,99884.69
2022-11-08T07:21:51.471Z,99886.38
2022-11-08T07:24:19.084Z,99873.03
2022-11-08T07:26:46.629Z,99863.47
2022-11-08T07:29:16.119Z,99880.69
2022-11-08T07:31:45.116Z,99865.47
2022-11-08T07:34:12.601Z,99863.47
2022-11-08T07:36:40.093Z,99873.91
2022-11-08T07:39:07.605Z,99871.16
2022-11-08T07:41:35.103Z,99875.31
2022-11-08T07:44:02.583Z,99865.56
2022-11-08T07:46:30.425Z,99874.91
2022-11-08T07:48:59.192Z,99869.03
2022-11-08T07:51:26.628Z,99863.13
2022-11-08T07:53:54.162Z,99863.78
2022-11-08T07:56:21.620Z,99852.09
2022-11-08T07:58:49.213Z,99840.75
2022-11-08T08:01:16.703Z,99834.63
2022-11-08T08:03:44.146Z,99830.06
2022-11-08T08:06:12.934Z,99832.59
2022-11-08T08:08:40.404Z,99827.59
2022-11-08T08:11:07.895Z,99822.38
2022-11-08T08:13:35.346Z,99818.38
2022-11-08T08:16:02.860Z,99748.22
2022-11-08T08:18:30.358Z,99733.28
2022-11-08T08:20:57.838Z,99811.13
2022-11-08T08:23:26.593Z,99809.06
2022-11-08T08:25:54.082Z,99800.44
2022-11-08T08:28:21.587Z,99802.06
2022-11-08T08:30:49.101Z,99802.59
2022-11-08T08:33:32.711Z,99750.19
2022-11-08T08:36:01.068Z,99729.44
2022-11-08T08:38:30.843Z,99812.31
2022-11-08T08:40:58.489Z,99757.50
2022-11-08T08:43:27.394Z,99796.47
2022-11-08T08:45:55.184Z,99802.59
2022-11-08T08:48:22.618Z,99800.38
2022-11-08T08:50:50.046Z,99790.81
2022-11-08T08:53:17.970Z,99790.25
2022-11-08T08:55:47.926Z,99710.31
2022-11-08T08:58:15.422Z,99796.41
2022-11-08T09:03:31.919Z,99783.66
2022-11-08T09:05:59.495Z,99779.59
2022-11-08T09:08:26.949Z,99791.09
2022-11-08T09:10:56.095Z,99793.66
2022-11-08T09:13:23.799Z,99804.66
2022-11-08T09:15:51.227Z,99803.47
2022-11-08T09:18:18.743Z,99802.94
2022-11-08T09:20:47.335Z,99796.13
2022-11-08T09:23:16.677Z,99803.91
2022-11-08T09:25:44.506Z,99800.38
2022-11-08T09:28:13.289Z,99801.97
2022-11-08T09:30:40.800Z,99799.31
2022-11-08T09:33:08.301Z,99808.78
2022-11-08T09:35:35.854Z,99798.97
2022-11-08T09:38:03.336Z,99799.72
2022-11-08T09:40:32.397Z,99801.53
2022-11-08T09:43:04.982Z,99798.88
2022-11-08T09:45:35.084Z,99798.03
2022-11-08T09:48:05.259Z,99795.16
2022-11-08T09:50:36.659Z,99801.53
2022-11-08T09:53:10.341Z,99783.78
2022-11-08T09:55:39.462Z,99786.09
2022-11-08T09:58:13.978Z,99734.13
2022-11-08T10:00:42.819Z,99783.97
2022-11-08T10:03:12.983Z,99780.66
2022-11-08T10:05:40.658Z,99780.72
2022-11-08T10:08:10.595Z,99769.41
2022-11-08T10:10:41.612Z,99770.69
2022-11-08T10:13:13.594Z,99755.88
2022-11-08T10:15:45.465Z,99762.63
2022-11-08T10:18:29.385Z,99760.16
2022-11-08T10:21:03.916Z,99761.44
2022-11-08T10:23:37.512Z,99748.84
2022-11-08T10:26:06.789Z,99752.97
2022-11-08T10:28:35.909Z,99755.75
2022-11-08T10:31:04.717Z,99743.53
2022-11-08T10:33:33.382Z,99730.09
2022-11-08T10:36:02.776Z,99724.16
2022-11-08T10:38:35.186Z,99740.41
2022-11-08T10:41:07.085Z,99741.09
2022-11-08T10:43:35.842Z,99733.53
2022-11-08T10:46:05.237Z,99742.97
2022-11-08T10:48:35.240Z,99718.75
2022-11-08T10:51:02.709Z,99727.56
2022-11-08T10:53:30.983Z,99716.47
2022-11-08T10:56:01.812Z,99672.56
2022-11-08T10:58:31.602Z,99673.16
2022-11-08T11:01:05.162Z,99731.91
2022-11-08T11:03:32.649Z,99701.63
2022-11-08T11:06:00.672Z,99691.00
2022-11-08T11:08:28.209Z,99723.41
2022-11-08T11:10:55.733Z,99718.06
2022-11-08T11:13:24.516Z,99717.91
2022-11-08T11:15:52.994Z,99716.59
2022-11-08T11:18:29.580Z,99710.19
2022-11-08T11:21:02.006Z,99652.31
2022-11-08T11:23:37.154Z,99706.91
2022-11-08T11:26:05.215Z,99650.63
2022-11-08T11:28:32.810Z,99639.47
2022-11-08T11:31:00.989Z,99662.63
2022-11-08T11:33:30.625Z,99642.53
2022-11-08T11:35:59.284Z,99686.28
2022-11-08T11:38:31.663Z,99679.84
2022-11-08T11:41:02.969Z,99676.78
2022-11-08T11:43:34.829Z,99694.44
2022-11-08T11:46:04.854Z,99689.56
2022-11-08T11:48:34.813Z,99690.03
2022-11-08T11:51:02.687Z,99678.56
2022-11-08T11:53:32.837Z,99675.03
2022-11-08T11:56:13.358Z,99666.53
2022-11-08T11:58:50.478Z,99622.66
2022-11-08T12:01:21.081Z,99583.09
2022-11-08T12:04:08.048Z,99648.88
2022-11-08T12:06:42.666Z,99615.53
2022-11-08T12:09:22.035Z,99657.72
2022-11-08T12:11:54.502Z,99643.78
2022-11-08T12:14:31.469Z,99643.44
2022-11-08T12:17:04.522Z,99601.22
2022-11-08T12:19:39.295Z,99647.91
2022-11-08T12:22:17.006Z,99646.09
2022-11-08T12:24:47.791Z,99640.34
2022-11-08T12:27:19.857Z,99640.72
2022-11-08T12:29:49.961Z,99586.91
2022-11-08T12:32:23.525Z,99633.75
2022-11-08T12:34:59.231Z,99634.97
2022-11-08T12:37:33.521Z,99626.88
2022-11-08T12:40:01.573Z,99613.19
2022-11-08T12:42:38.122Z,99623.88
2022-11-08T12:45:30.289Z,99569.34
2022-11-08T12:47:59.476Z,99606.91
2022-11-08T12:50:30.378Z,99601.34
2022-11-08T12:53:19.890Z,99548.88
2022-11-08T12:55:48.413Z,99571.25
2022-11-08T12:58:24.298Z,99600.59
2022-11-08T13:00:52.315Z,99563.03
2022-11-08T13:03:28.603Z,99579.41
2022-11-08T13:05:59.808Z,99587.06
2022-11-08T13:08:29.470Z,99589.38
2022-11-08T13:10:58.153Z,99588.91
2022-11-08T13:13:29.370Z,99595.16
2022-11-08T13:16:11.509Z,99613.09
2022-11-08T13:18:44.723Z,99594.97
2022-11-08T13:21:34.103Z,99612.34
2022-11-08T13:24:48.527Z,99615.84
2022-11-08T13:27:25.899Z,99611.81
2022-11-08T13:29:53.654Z,99615.34
2022-11-08T13:32:29.213Z,99619.75
2022-11-08T13:34:59.635Z,99613.59
2022-11-08T13:37:50.677Z,99610.19
2022-11-08T13:40:43.989Z,99614.69
2022-11-08T13:43:23.128Z,99613.31
2022-11-08T13:45:50.639Z,99598.63
2022-11-08T13:48:36.565Z,99615.63
2022-11-08T13:51:23.835Z,99583.59
2022-11-08T13:53:54.388Z,99603.63
2022-11-08T13:56:27.235Z,99600.34
2022-11-08T13:58:54.705Z,99600.59
2022-11-08T14:01:56.024Z,99606.75
2022-11-08T14:04:24.140Z,99602.84
2022-11-08T14:06:54.567Z,99591.97
2022-11-08T14:09:30.670Z,99592.84
2022-11-08T14:12:01.851Z,99590.41
2022-11-08T14:14:41.481Z,99591.13
2022-11-08T14:17:39.761Z,99593.78
2022-11-08T14:20:18.586Z,99599.31
2022-11-08T14:22:49.824Z,99557.38
2022-11-08T14:25:23.529Z,99598.22
2022-11-08T14:27:50.970Z,99598.09
2022-11-08T14:30:19.403Z,99531.91
2022-11-08T14:32:48.223Z,99593.00
2022-11-08T14:35:21.479Z,99595.78
2022-11-08T14:37:49.043Z,99602.91
2022-11-08T14:40:20.182Z,99602.09
2022-11-08T14:42:47.635Z,99606.53
2022-11-08T14:45:15.810Z,99613.66
2022-11-08T14:47:43.247Z,99605.19
2022-11-08T14:50:18.161Z,99615.72
2022-11-08T14:52:45.670Z,99572.53
2022-11-08T14:55:14.055Z,99604.56
2022-11-08T14:57:43.235Z,99600.09
2022-11-08T15:00:18.834Z,99564.50
2022-11-08T15:02:47.815Z,99618.19
2022-11-08T15:05:40.286Z,99624.38
2022-11-08T15:08:08.951Z,99568.34
2022-11-08T15:10:36.789Z,99588.94
2022-11-08T15:13:05.583Z,99632.38
2022-11-08T15:15:33.433Z,99572.47
2022-11-08T15:18:11.212Z,99626.63
2022-11-08T15:20:38.800Z,99587.69
2022-11-08T15:23:24.909Z,99635.47
2022-11-08T15:25:56.643Z,99631.09
2022-11-08T15:28:26.639Z,99629.53
2022-11-08T15:30:55.325Z,99620.91
2022-11-08T15:33:23.457Z,99613.59
2022-11-08T15:35:51.297Z,99628.88
2022-11-08T15:38:27.919Z,99616.38
2022-11-08T15:40:56.052Z,99630.72
2022-11-08T15:43:41.284Z,99619.97
2022-11-08T15:46:29.952Z,99610.25
2022-11-08T15:48:58.525Z,99599.75
2022-11-08T15:51:25.982Z,99607.00
2022-11-08T15:53:53.509Z,99600.81
2022-11-08T15:56:20.958Z,99599.13
2022-11-08T15:58:49.731Z,99599.97
2022-11-08T16:01:19.204Z,99591.03
2022-11-08T16:03:46.987Z,99584.22
2022-11-08T16:06:14.489Z,99588.72
2022-11-08T16:08:41.924Z,99591.38
2022-11-08T16:11:11.618Z,99590.63
2022-11-08T16:13:39.688Z,99590.63
2022-11-08T16:16:11.873Z,99497.03
2022-11-08T16:18:39.366Z,99573.94
2022-11-08T16:21:07.006Z,99575.75
2022-11-08T16:23:34.439Z,99580.22
2022-11-08T16:26:03.147Z,99566.06
2022-11-08T16:28:34.104Z,99563.97
2022-11-08T16:31:01.647Z,99565.91
2022-11-08T16:33:31.072Z,99489.28
2022-11-08T16:35:59.393Z,99570.16
2022-11-08T16:38:28.919Z,99563.03
2022-11-08T16:40:56.365Z,99526.50
2022-11-08T16:43:23.803Z,99566.63
2022-11-08T16:46:04.935Z,99524.63
2022-11-08T16:48:35.874Z,99492.75
2022-11-08T16:51:04.434Z,99567.50
2022-11-08T16:53:32.201Z,99573.91
2022-11-08T16:55:59.703Z,99582.78
2022-11-08T16:58:27.773Z,99587.25
2022-11-08T17:00:55.691Z,99595.25
2022-11-08T17:03:24.247Z,99583.75
2022-11-08T17:05:53.744Z,99592.69
2022-11-08T17:08:21.511Z,99593.63
2022-11-08T17:10:49.157Z,99594.59
2022-11-08T17:13:16.796Z,99595.56
2022-11-08T17:15:44.376Z,99595.56
2022-11-08T17:18:12.320Z,99602.78
2022-11-08T17:20:40.004Z,99596.50
2022-11-08T17:23:08.915Z,99590.25
2022-11-08T17:25:36.563Z,99591.94
2022-11-08T17:28:04.077Z,99595.69
2022-11-08T17:30:31.537Z,99592.16
2022-11-08T17:32:58.983Z,99499.63
2022-11-08T17:35:26.422Z,99586.00
2022-11-08T17:37:54.132Z,99594.72
2022-11-08T17:40:22.912Z,99595.56
2022-11-08T17:42:50.392Z,99606.53
2022-11-08T17:45:17.905Z,99606.66
2022-11-08T17:47:45.336Z,99606.53
2022-11-08T17:50:12.810Z,99613.75
2022-11-08T17:52:40.288Z,99610.03
2022-11-08T17:55:09.080Z,99605.56
2022-11-08T17:57:37.858Z,99605.91
2022-11-08T18:00:10.704Z,99607.81
2022-11-08T18:02:38.843Z,99611.31
2022-11-08T18:05:06.824Z,99614.72
2022-11-08T18:07:34.279Z,99614.94
2022-11-08T18:10:02.610Z,99622.06
2022-11-08T18:12:32.059Z,99614.31
2022-11-08T18:15:01.015Z,99612.50
2022-11-08T18:17:28.484Z,99608.13
2022-11-08T18:19:55.993Z,99612.63
2022-11-08T18:22:23.449Z,99602.09
2022-11-08T18:24:50.949Z,99603.91
2022-11-08T18:27:18.698Z,99593.28
2022-11-08T18:29:46.154Z,99586.97
2022-11-08T18:32:14.986Z,99573.19
2022-11-08T18:34:42.481Z,99586.28
2022-11-08T18:37:09.935Z,99578.19
2022-11-08T18:39:37.493Z,99581.78
2022-11-08T18:42:05.011Z,99577.53
2022-11-08T18:44:32.458Z,99509.41
2022-11-08T18:46:59.912Z,99575.84
2022-11-08T18:49:28.723Z,99574.13
2022-11-08T18:51:57.434Z,99581.16
2022-11-08T18:54:25.064Z,99582.09
2022-11-08T18:56:52.522Z,99590.09
2022-11-08T18:59:20.084Z,99586.59
2022-11-08T19:01:47.624Z,99599.88
2022-11-08T19:04:15.230Z,99599.03
2022-11-08T19:06:44.194Z,99592.84
2022-11-08T19:09:11.780Z,99599.78
2022-11-08T19:11:39.228Z,99588.41
2022-11-08T19:14:06.667Z,99589.25
2022-11-08T19:16:34.688Z,99586.69
2022-11-08T19:19:02.173Z,99588.41
2022-11-08T19:21:29.741Z,99575.44
2022-11-08T19:23:59.384Z,99575.22
2022-11-08T19:26:28.483Z,99586.69
2022-11-08T19:28:56.485Z,99563.44
2022-11-08T19:31:24.684Z,99583.28
2022-11-08T19:33:53.167Z,99498.91
2022-11-08T19:36:21.445Z,99577.88
2022-11-08T19:38:49.337Z,99580.84
2022-11-08T19:41:19.352Z,99547.84
2022-11-08T19:43:47.037Z,99589.59
2022-11-08T19:46:15.614Z,99582.44
2022-11-08T19:48:43.956Z,99590.53
2022-11-08T19:51:13.828Z,99485.88
2022-11-08T19:53:41.625Z,99530.66
2022-11-08T19:56:10.101Z,99518.75
2022-11-08T19:58:38.995Z,99578.19
2022-11-08T20:01:09.746Z,99584.38
2022-11-08T20:03:37.189Z,99584.50
2022-11-08T20:06:04.891Z,99526.72
2022-11-08T20:08:32.356Z,99593.19
2022-11-08T20:10:59.837Z,99596.06
2022-11-08T20:13:27.394Z,99595.13
2022-11-08T20:15:56.154Z,99589.06
2022-11-08T20:18:23.620Z,99590.84
2022-11-08T20:20:51.121Z,99588.28
2022-11-08T20:23:18.579Z,99601.38
2022-11-08T20:25:46.043Z,99597.03
2022-11-08T20:28:13.490Z,99592.56
2022-11-08T20:30:41.401Z,99587.38
2022-11-08T20:33:10.214Z,99589.06
2022-11-08T20:35:38.594Z,99589.16
2022-11-08T20:38:06.043Z,99575.97
2022-11-08T20:40:33.505Z,99589.16
2022-11-08T20:43:00.950Z,99593.50
2022-11-08T20:45:28.454Z,99586.50
2022-11-08T20:47:55.895Z,99582.88
2022-11-08T20:50:24.673Z,99582.97
2022-11-08T20:52:52.115Z,99587.47
2022-11-08T20:55:19.577Z,99586.50
2022-11-08T20:57:47.528Z,99581.28
2022-11-08T21:00:23.973Z,99577.38
2022-11-08T21:03:00.435Z,99591.06
2022-11-08T21:05:29.257Z,99582.25
2022-11-08T21:08:56.759Z,99594.81
2022-11-08T21:10:47.583Z,99591.28
2022-11-08T21:13:15.396Z,99524.22
2022-11-08T21:15:45.059Z,99527.38
2022-11-08T21:18:12.475Z,99589.47
2022-11-08T21:20:41.632Z,99588.63
2022-11-08T21:23:09.044Z,99594.03
2022-11-08T21:25:36.519Z,99586.94
2022-11-08T21:28:03.972Z,99590.44
2022-11-08T21:30:31.408Z,99590.56
2022-11-08T21:32:58.823Z,99598.53
2022-11-08T21:35:26.273Z,99587.16
2022-11-08T21:37:55.098Z,99594.16
2022-11-08T21:40:22.575Z,99577.38
2022-11-08T21:42:50.091Z,99589.81
2022-11-08T21:45:17.540Z,99584.59
2022-11-08T21:47:49.188Z,99584.38
2022-11-08T21:50:16.762Z,99598.63
2022-11-08T21:52:44.189Z,99588.13
2022-11-08T21:55:13.051Z,99596.09
2022-11-08T21:57:40.713Z,99603.94
2022-11-08T22:00:10.605Z,99606.59
2022-11-08T22:02:38.109Z,99589.91
2022-11-08T22:05:06.355Z,99602.22
2022-11-08T22:07:34.050Z,99606.59
2022-11-08T22:10:01.455Z,99606.59
2022-11-08T22:12:30.199Z,99609.38
2022-11-08T22:14:57.617Z,99605.00
2022-11-08T22:17:25.161Z,99606.81
2022-11-08T22:19:52.584Z,99606.81
2022-11-08T22:22:20.010Z,99597.13
2022-11-08T22:24:47.476Z,99611.16
2022-11-08T22:27:14.923Z,99600.66
2022-11-08T22:29:43.670Z,99612.13
2022-11-08T22:32:11.101Z,99601.63
2022-11-08T22:34:38.552Z,99602.44
2022-11-08T22:37:06.071Z,99605.09
2022-11-08T22:39:33.485Z,99606.81
2022-11-08T22:42:00.916Z,99605.97
2022-11-08T22:44:28.382Z,99607.75
2022-11-08T22:46:57.179Z,99608.63
2022-11-08T22:49:24.604Z,99605.22
2022-11-08T22:51:52.068Z,99613.06
2022-11-08T22:54:19.624Z,99604.38
2022-11-08T22:56:48.127Z,99603.53
2022-11-08T22:59:15.545Z,99596.41
2022-11-08T23:01:43.020Z,99592.34
2022-11-08T23:04:11.886Z,99583.47
2022-11-08T23:06:39.690Z,99586.00
2022-11-08T23:09:07.219Z,99588.66
2022-11-08T23:11:52.201Z,99586.22
2022-11-08T23:14:37.946Z,99593.00
2022-11-08T23:17:06.724Z,99596.63
2022-11-08T23:19:53.347Z,99594.81
2022-11-08T23:22:38.724Z,99598.44
2022-11-08T23:25:07.143Z,99593.97
2022-11-08T23:27:52.416Z,99599.28
2022-11-08T23:30:37.727Z,99594.91
2022-11-08T23:33:05.484Z,99584.59
2022-11-08T23:37:54.522Z,99588.22
2022-11-08T23:40:39.519Z,99593.31
2022-11-08T23:43:25.201Z,99588.88
2022-11-08T23:45:52.777Z,99587.06
2022-11-08T23:48:20.292Z,99515.72
2022-11-08T23:50:49.539Z,99582.59
2022-11-08T23:53:18.773Z,99584.41
2022-11-08T23:55:46.513Z,99543.00
2022-11-08T23:58:14.225Z,99590.56
